sensor_id;sensor_type;location;lat;lon;timestamp;pressure;altitude;pressure_sealevel;temperature;humidity
11001;BME280;5553;48.506;8.870;2022-10-03T00:01:45;97872.53;;;7.72;100.00
11001;BME280;5553;48.506;8.870;2022-10-03T00:04:35;97874.22;;;7.63;100.00
11001;BME280;5553;48.506;8.870;2022-10-03T00:07:17;97885.53;;;7.54;100.00
11001;BME280;5553;48.506;8.870;2022-10-03T00:09:57;97883.88;;;7.53;100.00
11001;BME280;5553;48.506;8.870;2022-10-03T00:12:44;97858.06;;;6.59;100.00
11001;BME280;5553;48.506;8.870;2022-10-03T00:15:17;97877.03;;;6.82;100.00
11001;BME280;5553;48.506;8.870;2022-10-03T00:18:00;97883.13;;;6.93;100.00
11001;BME280;5553;48.506;8.870;2022-10-03T00:20:47;97887.69;;;7.00;100.00
11001;BME280;5553;48.506;8.870;2022-10-03T00:23:22;97891.56;;;6.96;100.00
11001;BME280;5553;48.506;8.870;2022-10-03T00:25:58;97905.69;;;7.05;100.00
11001;BME280;5553;48.506;8.870;2022-10-03T00:28:58;97920.16;;;6.99;100.00
11001;BME280;5553;48.506;8.870;2022-10-03T00:31:39;97935.19;;;6.97;100.00
11001;BME280;5553;48.506;8.870;2022-10-03T00:34:25;97945.69;;;6.97;100.00
11001;BME280;5553;48.506;8.870;2022-10-03T00:37:11;97955.56;;;7.05;100.00
11001;BME280;5553;48.506;8.870;2022-10-03T00:39:59;97950.38;;;6.94;100.00
11001;BME280;5553;48.506;8.870;2022-10-03T00:42:59;97941.38;;;6.86;100.00
11001;BME280;5553;48.506;8.870;2022-10-03T00:48:48;97939.28;;;6.71;100.00
11001;BME280;5553;48.506;8.870;2022-10-03T00:51:37;97948.69;;;6.83;100.00
11001;BME280;5553;48.506;8.870;2022-10-03T00:54:34;97948.84;;;6.81;100.00
11001;BME280;5553;48.506;8.870;2022-10-03T00:57:33;97953.06;;;6.73;100.00
11001;BME280;5553;48.506;8.870;2022-10-03T01:00:16;97963.56;;;6.73;100.00
11001;BME280;5553;48.506;8.870;2022-10-03T01:02:58;97946.84;;;6.64;100.00
11001;BME280;5553;48.506;8.870;2022-10-03T01:05:38;97954.97;;;6.61;100.00
11001;BME280;5553;48.506;8.870;2022-10-03T01:08:37;97958.56;;;6.60;100.00
11001;BME280;5553;48.506;8.870;2022-10-03T01:11:15;97959.41;;;6.60;100.00
11001;BME280;5553;48.506;8.870;2022-10-03T01:13:55;97962.00;;;6.60;100.00
11001;BME280;5553;48.506;8.870;2022-10-03T01:16:34;97959.19;;;6.52;100.00
11001;BME280;5553;48.506;8.870;2022-10-03T01:19:21;97971.63;;;6.50;100.00
11001;BME280;5553;48.506;8.870;2022-10-03T01:22:07;97985.06;;;6.57;100.00
11001;BME280;5553;48.506;8.870;2022-10-03T01:24:53;97982.81;;;6.52;100.00
11001;BME280;5553;48.506;8.870;2022-10-03T01:27:30;97988.84;;;6.43;100.00
11001;BME280;5553;48.506;8.870;2022-10-03T01:30:26;97998.78;;;6.49;100.00
11001;BME280;5553;48.506;8.870;2022-10-03T01:33:00;98001.97;;;6.53;100.00
11001;BME280;5553;48.506;8.870;2022-10-03T01:35:40;98023.28;;;6.59;100.00
11001;BME280;5553;48.506;8.870;2022-10-03T01:38:18;98031.09;;;6.50;100.00
11001;BME280;5553;48.506;8.870;2022-10-03T01:40:56;98047.66;;;6.50;100.00
11001;BME280;5553;48.506;8.870;2022-10-03T01:43:33;98044.47;;;6.47;100.00
11001;BME280;5553;48.506;8.870;2022-10-03T01:46:11;98051.31;;;6.38;100.00
11001;BME280;5553;48.506;8.870;2022-10-03T01:48:51;98055.31;;;6.42;100.00
11001;BME280;5553;48.506;8.870;2022-10-03T07:53:21;97860.44;;;9.72;100.00
11001;BME280;5553;48.506;8.870;2022-10-03T07:56:05;97856.31;;;9.95;100.00
11001;BME280;5553;48.506;8.870;2022-10-03T07:58:55;97839.47;;;9.88;100.00
11001;BME280;5553;48.506;8.870;2022-10-03T08:04:43;97821.16;;;9.87;100.00
11001;BME280;5553;48.506;8.870;2022-10-03T08:07:44;97823.13;;;9.85;100.00
11001;BME280;5553;48.506;8.870;2022-10-03T08:10:44;97811.06;;;9.82;100.00
11001;BME280;5553;48.506;8.870;2022-10-03T08:13:32;97784.25;;;9.61;100.00
11001;BME280;5553;48.506;8.870;2022-10-03T08:16:18;97796.22;;;10.33;100.00
11001;BME280;5553;48.506;8.870;2022-10-03T08:19:00;97789.38;;;10.23;100.00
11001;BME280;5553;48.506;8.870;2022-10-03T08:21:46;97786.25;;;9.93;100.00
11001;BME280;5553;48.506;8.870;2022-10-03T08:24:46;97768.16;;;9.98;100.00
11001;BME280;5553;48.506;8.870;2022-10-03T08:27:33;97764.78;;;10.14;100.00
11001;BME280;5553;48.506;8.870;2022-10-03T08:30:19;97748.63;;;10.17;100.00
11001;BME280;5553;48.506;8.870;2022-10-03T08:32:56;97757.56;;;10.24;100.00
11001;BME280;5553;48.506;8.870;2022-10-03T08:35:35;97769.84;;;10.33;100.00
11001;BME280;5553;48.506;8.870;2022-10-03T08:38:33;97766.91;;;10.44;100.00
11001;BME280;5553;48.506;8.870;2022-10-03T08:44:39;97762.50;;;10.19;100.00
11001;BME280;5553;48.506;8.870;2022-10-03T08:50:38;97765.91;;;9.77;100.00
11001;BME280;5553;48.506;8.870;2022-10-03T08:53:41;97770.81;;;9.72;100.00
11001;BME280;5553;48.506;8.870;2022-10-03T08:56:17;97777.44;;;9.76;100.00
11001;BME280;5553;48.506;8.870;2022-10-03T09:05:20;97780.50;;;9.97;100.00
11001;BME280;5553;48.506;8.870;2022-10-03T09:08:24;97782.13;;;9.90;100.00
11001;BME280;5553;48.506;8.870;2022-10-03T09:11:18;97778.66;;;9.90;100.00
11001;BME280;5553;48.506;8.870;2022-10-03T09:14:33;97773.38;;;10.16;100.00
11001;BME280;5553;48.506;8.870;2022-10-03T09:20:42;97771.84;;;10.05;100.00
11001;BME280;5553;48.506;8.870;2022-10-03T09:26:54;97756.53;;;10.43;100.00
11001;BME280;5553;48.506;8.870;2022-10-03T09:29:56;97726.69;;;10.59;100.00
11001;BME280;5553;48.506;8.870;2022-10-03T09:35:46;97702.66;;;11.19;100.00
11001;BME280;5553;48.506;8.870;2022-10-03T09:38:47;97681.56;;;12.53;100.00
11001;BME280;5553;48.506;8.870;2022-10-03T09:41:41;97624.28;;;13.51;100.00
11001;BME280;5553;48.506;8.870;2022-10-03T09:44:23;97580.44;;;14.57;100.00
11001;BME280;5553;48.506;8.870;2022-10-03T09:47:14;97544.94;;;14.93;100.00
11001;BME280;5553;48.506;8.870;2022-10-03T09:50:11;97538.06;;;15.40;100.00
11001;BME280;5553;48.506;8.870;2022-10-03T09:53:10;97528.34;;;15.60;100.00
11001;BME280;5553;48.506;8.870;2022-10-03T09:56:01;97519.78;;;15.24;100.00
11001;BME280;5553;48.506;8.870;2022-10-03T09:59:00;97524.47;;;16.44;100.00
11001;BME280;5553;48.506;8.870;2022-10-03T10:01:35;97516.25;;;14.82;100.00
11001;BME280;5553;48.506;8.870;2022-10-03T10:07:51;97526.06;;;16.05;100.00
11001;BME280;5553;48.506;8.870;2022-10-03T10:10:48;97511.16;;;14.80;100.00
11001;BME280;5553;48.506;8.870;2022-10-03T10:13:41;97511.97;;;17.04;100.00
11001;BME280;5553;48.506;8.870;2022-10-03T10:16:35;97481.69;;;15.58;93.94
11001;BME280;5553;48.506;8.870;2022-10-03T10:19:25;97510.88;;;15.03;100.00
11001;BME280;5553;48.506;8.870;2022-10-03T10:22:37;97511.91;;;15.92;100.00
11001;BME280;5553;48.506;8.870;2022-10-03T10:31:44;97469.84;;;17.33;83.72
11001;BME280;5553;48.506;8.870;2022-10-03T10:34:55;97450.75;;;17.36;80.83
11001;BME280;5553;48.506;8.870;2022-10-03T10:37:52;97464.66;;;16.93;81.93
11001;BME280;5553;48.506;8.870;2022-10-03T10:43:49;97457.47;;;17.90;79.67
11001;BME280;5553;48.506;8.870;2022-10-03T10:46:58;97420.06;;;18.22;73.32
11001;BME280;5553;48.506;8.870;2022-10-03T10:50:15;97445.81;;;16.15;79.90
11001;BME280;5553;48.506;8.870;2022-10-03T10:59:43;97433.38;;;18.79;73.21
11001;BME280;5553;48.506;8.870;2022-10-03T11:05:39;97426.13;;;20.13;70.42
11001;BME280;5553;48.506;8.870;2022-10-03T11:14:56;97412.03;;;17.27;71.40
11001;BME280;5553;48.506;8.870;2022-10-03T11:18:17;97409.16;;;17.67;72.68
11001;BME280;5553;48.506;8.870;2022-10-03T11:21:33;97427.81;;;16.17;77.46
11001;BME280;5553;48.506;8.870;2022-10-03T11:27:45;97483.13;;;16.48;82.43
11001;BME280;5553;48.506;8.870;2022-10-03T11:30:54;97454.00;;;16.40;79.99
11001;BME280;5553;48.506;8.870;2022-10-03T11:36:59;97440.66;;;15.80;79.58
11001;BME280;5553;48.506;8.870;2022-10-03T11:39:40;97440.78;;;15.65;77.70
11001;BME280;5553;48.506;8.870;2022-10-03T11:42:18;97444.81;;;16.36;77.06
11001;BME280;5553;48.506;8.870;2022-10-03T11:44:55;97435.97;;;16.69;76.32
11001;BME280;5553;48.506;8.870;2022-10-03T11:47:51;97426.66;;;17.04;74.75
11001;BME280;5553;48.506;8.870;2022-10-03T11:50:29;97447.34;;;15.56;79.64
11001;BME280;5553;48.506;8.870;2022-10-03T11:53:09;97434.53;;;15.25;80.24
11001;BME280;5553;48.506;8.870;2022-10-03T11:55:42;97420.03;;;14.86;77.86
11001;BME280;5553;48.506;8.870;2022-10-03T11:58:36;97403.22;;;16.15;73.97
11001;BME280;5553;48.506;8.870;2022-10-03T12:01:23;97391.63;;;18.34;69.29
11001;BME280;5553;48.506;8.870;2022-10-03T12:04:01;97423.13;;;18.51;70.45
11001;BME280;5553;48.506;8.870;2022-10-03T12:06:56;97346.91;;;17.73;65.59
11001;BME280;5553;48.506;8.870;2022-10-03T12:09:46;97375.63;;;18.34;67.05
11001;BME280;5553;48.506;8.870;2022-10-03T12:12:33;97380.69;;;19.34;66.08
11001;BME280;5553;48.506;8.870;2022-10-03T12:15:19;97358.03;;;18.88;64.34
11001;BME280;5553;48.506;8.870;2022-10-03T12:17:57;97356.28;;;19.12;63.37
11001;BME280;5553;48.506;8.870;2022-10-03T12:20:37;97361.94;;;19.53;62.71
11001;BME280;5553;48.506;8.870;2022-10-03T12:23:21;97352.78;;;20.14;61.30
11001;BME280;5553;48.506;8.870;2022-10-03T12:25:56;97302.09;;;19.77;58.47
11001;BME280;5553;48.506;8.870;2022-10-03T12:28:31;97344.47;;;20.74;59.82
11001;BME280;5553;48.506;8.870;2022-10-03T12:31:09;97291.94;;;19.68;57.95
11001;BME280;5553;48.506;8.870;2022-10-03T12:33:47;97292.91;;;19.55;57.45
11001;BME280;5553;48.506;8.870;2022-10-03T12:36:26;97277.44;;;17.29;61.57
11001;BME280;5553;48.506;8.870;2022-10-03T12:39:10;97321.38;;;19.07;60.46
11001;BME280;5553;48.506;8.870;2022-10-03T12:41:55;97329.63;;;21.64;57.59
11001;BME280;5553;48.506;8.870;2022-10-03T12:44:36;97309.91;;;20.26;58.30
11001;BME280;5553;48.506;8.870;2022-10-03T12:53:19;97290.75;;;17.68;62.51
11001;BME280;5553;48.506;8.870;2022-10-03T12:56:09;97320.50;;;16.17;66.96
11001;BME280;5553;48.506;8.870;2022-10-03T12:58:52;97328.72;;;15.95;67.92
11001;BME280;5553;48.506;8.870;2022-10-03T13:01:33;97327.47;;;16.24;67.64
11001;BME280;5553;48.506;8.870;2022-10-03T13:04:13;97273.41;;;17.52;59.87
11001;BME280;5553;48.506;8.870;2022-10-03T13:06:59;97251.25;;;18.38;57.90
11001;BME280;5553;48.506;8.870;2022-10-03T13:09:48;97295.53;;;19.31;59.63
11001;BME280;5553;48.506;8.870;2022-10-03T13:12:35;97273.75;;;18.12;60.39
11001;BME280;5553;48.506;8.870;2022-10-03T13:15:40;97270.66;;;17.90;60.31
11001;BME280;5553;48.506;8.870;2022-10-03T13:18:29;97294.59;;;18.40;60.46
11001;BME280;5553;48.506;8.870;2022-10-03T13:21:04;97295.88;;;19.35;59.23
11001;BME280;5553;48.506;8.870;2022-10-03T13:23:41;97334.81;;;19.19;62.50
11001;BME280;5553;48.506;8.870;2022-10-03T13:26:18;97301.53;;;19.15;60.89
11001;BME280;5553;48.506;8.870;2022-10-03T13:29:10;97330.50;;;21.13;59.02
11001;BME280;5553;48.506;8.870;2022-10-03T13:31:51;97279.63;;;20.02;57.26
11001;BME280;5553;48.506;8.870;2022-10-03T13:34:24;97295.53;;;18.46;61.95
11001;BME280;5553;48.506;8.870;2022-10-03T13:36:59;97290.66;;;17.81;62.10
11001;BME280;5553;48.506;8.870;2022-10-03T13:39:40;97273.84;;;17.17;62.43
11001;BME280;5553;48.506;8.870;2022-10-03T13:42:19;97283.03;;;16.25;63.80
11001;BME280;5553;48.506;8.870;2022-10-03T13:44:50;97298.59;;;16.93;64.02
11001;BME280;5553;48.506;8.870;2022-10-03T13:50:04;97259.75;;;19.02;57.48
11001;BME280;5553;48.506;8.870;2022-10-03T13:52:51;97238.88;;;18.44;57.32
11001;BME280;5553;48.506;8.870;2022-10-03T13:55:40;97293.72;;;19.44;59.66
11001;BME280;5553;48.506;8.870;2022-10-03T13:58:27;97269.00;;;19.72;56.88
11001;BME280;5553;48.506;8.870;2022-10-03T14:01:26;97224.41;;;17.96;57.84
11001;BME280;5553;48.506;8.870;2022-10-03T14:04:15;97236.41;;;18.79;57.13
11001;BME280;5553;48.506;8.870;2022-10-03T14:06:52;97264.81;;;18.92;58.63
11001;BME280;5553;48.506;8.870;2022-10-03T14:12:24;97257.88;;;18.54;58.95
11001;BME280;5553;48.506;8.870;2022-10-03T14:15:16;97248.09;;;18.97;58.37
11001;BME280;5553;48.506;8.870;2022-10-03T14:17:54;97265.78;;;19.39;59.22
11001;BME280;5553;48.506;8.870;2022-10-03T14:20:30;97244.84;;;18.94;58.66
11001;BME280;5553;48.506;8.870;2022-10-03T14:23:08;97216.16;;;18.53;58.14
11001;BME280;5553;48.506;8.870;2022-10-03T14:25:42;97279.97;;;19.40;60.37
11001;BME280;5553;48.506;8.870;2022-10-03T14:28:16;97210.94;;;18.58;57.60
11001;BME280;5553;48.506;8.870;2022-10-03T14:30:58;97261.44;;;19.27;59.24
11001;BME280;5553;48.506;8.870;2022-10-03T14:33:31;97216.72;;;17.57;59.66
11001;BME280;5553;48.506;8.870;2022-10-03T14:36:16;97262.38;;;18.35;60.93
11001;BME280;5553;48.506;8.870;2022-10-03T14:38:56;97246.94;;;18.56;58.94
11001;BME280;5553;48.506;8.870;2022-10-03T14:41:37;97251.09;;;17.96;61.67
11001;BME280;5553;48.506;8.870;2022-10-03T14:44:09;97198.53;;;17.22;58.99
11001;BME280;5553;48.506;8.870;2022-10-03T14:46:50;97239.09;;;17.56;60.89
11001;BME280;5553;48.506;8.870;2022-10-03T14:49:24;97224.00;;;16.86;61.83
11001;BME280;5553;48.506;8.870;2022-10-03T14:51:59;97228.16;;;16.82;61.71
11001;BME280;5553;48.506;8.870;2022-10-03T14:54:30;97209.59;;;16.94;60.27
11001;BME280;5553;48.506;8.870;2022-10-03T14:57:13;97219.09;;;16.83;61.30
11001;BME280;5553;48.506;8.870;2022-10-03T14:59:51;97236.16;;;16.69;62.84
11001;BME280;5553;48.506;8.870;2022-10-03T15:02:29;97235.19;;;16.56;63.24
11001;BME280;5553;48.506;8.870;2022-10-03T15:05:05;97205.50;;;15.88;63.08
11001;BME280;5553;48.506;8.870;2022-10-03T15:07:37;97211.28;;;16.43;61.99
11001;BME280;5553;48.506;8.870;2022-10-03T15:10:09;97212.88;;;15.79;63.02
11001;BME280;5553;48.506;8.870;2022-10-03T15:12:41;97200.03;;;15.76;62.29
11001;BME280;5553;48.506;8.870;2022-10-03T15:15:14;97213.31;;;15.76;63.51
11001;BME280;5553;48.506;8.870;2022-10-03T15:17:49;97185.06;;;15.62;60.71
11001;BME280;5553;48.506;8.870;2022-10-03T15:20:24;97200.63;;;15.25;62.35
11001;BME280;5553;48.506;8.870;2022-10-03T15:22:57;97214.34;;;15.35;62.98
11001;BME280;5553;48.506;8.870;2022-10-03T15:25:30;97190.75;;;14.79;62.21
11001;BME280;5553;48.506;8.870;2022-10-03T15:28:04;97211.63;;;14.89;63.50
11001;BME280;5553;48.506;8.870;2022-10-03T15:30:35;97263.91;;;14.82;67.79
11001;BME280;5553;48.506;8.870;2022-10-03T15:33:13;97235.50;;;14.76;66.41
11001;BME280;5553;48.506;8.870;2022-10-03T15:35:45;97279.16;;;14.53;70.92
11001;BME280;5553;48.506;8.870;2022-10-03T15:38:20;97262.19;;;14.54;69.38
11001;BME280;5553;48.506;8.870;2022-10-03T15:40:53;97291.78;;;14.51;72.76
11001;BME280;5553;48.506;8.870;2022-10-03T15:43:35;97299.91;;;14.43;74.71
11001;BME280;5553;48.506;8.870;2022-10-03T15:46:11;97320.28;;;14.08;78.55
11001;BME280;5553;48.506;8.870;2022-10-03T15:48:43;97317.53;;;14.22;79.02
11001;BME280;5553;48.506;8.870;2022-10-03T15:51:16;97336.59;;;14.05;82.06
11001;BME280;5553;48.506;8.870;2022-10-03T15:53:47;97331.03;;;13.71;84.38
11001;BME280;5553;48.506;8.870;2022-10-03T15:56:21;97316.00;;;13.79;83.38
11001;BME280;5553;48.506;8.870;2022-10-03T15:58:53;97309.59;;;13.45;82.59
11001;BME280;5553;48.506;8.870;2022-10-03T16:01:25;97324.75;;;13.51;84.38
11001;BME280;5553;48.506;8.870;2022-10-03T16:03:59;97322.78;;;13.38;85.85
11001;BME280;5553;48.506;8.870;2022-10-03T16:06:35;97319.69;;;13.35;88.11
11001;BME280;5553;48.506;8.870;2022-10-03T16:09:15;97322.97;;;13.37;87.99
11001;BME280;5553;48.506;8.870;2022-10-03T16:11:53;97323.97;;;13.36;88.61
11001;BME280;5553;48.506;8.870;2022-10-03T16:14:27;97338.72;;;13.23;92.27
11001;BME280;5553;48.506;8.870;2022-10-03T16:16:59;97340.91;;;13.20;93.34
11001;BME280;5553;48.506;8.870;2022-10-03T16:19:37;97341.81;;;12.91;95.80
11001;BME280;5553;48.506;8.870;2022-10-03T16:22:13;97340.16;;;12.90;98.90
11001;BME280;5553;48.506;8.870;2022-10-03T16:24:56;97333.97;;;12.68;99.85
11001;BME280;5553;48.506;8.870;2022-10-03T16:27:28;97334.66;;;12.55;100.00
11001;BME280;5553;48.506;8.870;2022-10-03T16:30:12;97336.91;;;12.43;100.00
11001;BME280;5553;48.506;8.870;2022-10-03T16:32:48;97333.81;;;12.40;100.00
11001;BME280;5553;48.506;8.870;2022-10-03T16:35:31;97335.66;;;12.39;100.00
11001;BME280;5553;48.506;8.870;2022-10-03T16:38:04;97337.38;;;12.17;100.00
11001;BME280;5553;48.506;8.870;2022-10-03T16:40:33;97345.38;;;12.09;100.00
11001;BME280;5553;48.506;8.870;2022-10-03T16:43:04;97342.38;;;11.97;100.00
11001;BME280;5553;48.506;8.870;2022-10-03T16:45:39;97351.56;;;11.87;100.00
11001;BME280;5553;48.506;8.870;2022-10-03T16:48:16;97351.94;;;11.75;100.00
11001;BME280;5553;48.506;8.870;2022-10-03T16:51:02;97355.66;;;11.66;100.00
11001;BME280;5553;48.506;8.870;2022-10-03T16:53:32;97368.00;;;11.51;100.00
11001;BME280;5553;48.506;8.870;2022-10-03T16:56:04;97372.56;;;11.57;100.00
11001;BME280;5553;48.506;8.870;2022-10-03T16:58:37;97379.00;;;11.31;100.00
11001;BME280;5553;48.506;8.870;2022-10-03T17:01:12;97379.00;;;11.31;100.00
11001;BME280;5553;48.506;8.870;2022-10-03T17:03:44;97373.72;;;11.08;100.00
11001;BME280;5553;48.506;8.870;2022-10-03T17:06:25;97374.94;;;10.98;100.00
11001;BME280;5553;48.506;8.870;2022-10-03T17:08:58;97371.41;;;10.74;100.00
11001;BME280;5553;48.506;8.870;2022-10-03T17:11:31;97367.59;;;10.77;100.00
11001;BME280;5553;48.506;8.870;2022-10-03T17:14:05;97361.47;;;10.76;100.00
11001;BME280;5553;48.506;8.870;2022-10-03T17:16:36;97373.88;;;10.76;100.00
11001;BME280;5553;48.506;8.870;2022-10-03T17:19:19;97367.97;;;10.65;100.00
11001;BME280;5553;48.506;8.870;2022-10-03T17:21:59;97373.72;;;10.69;100.00
11001;BME280;5553;48.506;8.870;2022-10-03T17:24:38;97366.91;;;10.43;100.00
11001;BME280;5553;48.506;8.870;2022-10-03T17:27:24;97367.13;;;10.26;100.00
11001;BME280;5553;48.506;8.870;2022-10-03T17:29:57;97364.13;;;10.29;100.00
11001;BME280;5553;48.506;8.870;2022-10-03T17:32:36;97364.59;;;10.32;100.00
11001;BME280;5553;48.506;8.870;2022-10-03T17:35:11;97364.78;;;10.14;100.00
11001;BME280;5553;48.506;8.870;2022-10-03T17:38:16;97361.84;;;10.09;100.00
11001;BME280;5553;48.506;8.870;2022-10-03T17:40:51;97361.03;;;9.92;100.00
11001;BME280;5553;48.506;8.870;2022-10-03T17:43:31;97352.44;;;10.07;100.00
11001;BME280;5553;48.506;8.870;2022-10-03T17:46:04;97352.78;;;10.04;100.00
11001;BME280;5553;48.506;8.870;2022-10-03T17:48:38;97361.38;;;9.89;100.00
11001;BME280;5553;48.506;8.870;2022-10-03T17:51:28;97362.69;;;9.93;100.00
11001;BME280;5553;48.506;8.870;2022-10-03T17:54:02;97362.50;;;9.87;100.00
11001;BME280;5553;48.506;8.870;2022-10-03T17:56:33;97373.06;;;9.87;100.00
11001;BME280;5553;48.506;8.870;2022-10-03T17:59:05;97359.06;;;9.45;100.00
11001;BME280;5553;48.506;8.870;2022-10-03T18:01:41;97359.06;;;9.54;100.00
11001;BME280;5553;48.506;8.870;2022-10-03T18:04:14;97358.38;;;9.43;100.00
11001;BME280;5553;48.506;8.870;2022-10-03T18:06:47;97354.47;;;9.47;100.00
11001;BME280;5553;48.506;8.870;2022-10-03T18:09:25;97366.97;;;9.54;100.00
11001;BME280;5553;48.506;8.870;2022-10-03T18:12:03;97361.03;;;9.43;100.00
11001;BME280;5553;48.506;8.870;2022-10-03T18:14:40;97365.97;;;9.30;100.00
11001;BME280;5553;48.506;8.870;2022-10-03T18:17:15;97358.03;;;9.14;100.00
11001;BME280;5553;48.506;8.870;2022-10-03T18:20:04;97354.22;;;9.08;100.00
11001;BME280;5553;48.506;8.870;2022-10-03T18:22:41;97361.00;;;9.11;100.00
11001;BME280;5553;48.506;8.870;2022-10-03T18:25:22;97363.28;;;9.06;100.00
11001;BME280;5553;48.506;8.870;2022-10-03T18:28:11;97364.09;;;8.98;100.00
11001;BME280;5553;48.506;8.870;2022-10-03T18:30:45;97361.56;;;8.72;100.00
11001;BME280;5553;48.506;8.870;2022-10-03T18:33:17;97368.00;;;8.86;100.00
11001;BME280;5553;48.506;8.870;2022-10-03T18:35:48;97363.19;;;8.73;100.00
11001;BME280;5553;48.506;8.870;2022-10-03T18:38:20;97354.94;;;8.68;100.00
11001;BME280;5553;48.506;8.870;2022-10-03T18:40:54;97360.69;;;8.63;100.00
11001;BME280;5553;48.506;8.870;2022-10-03T18:43:30;97370.22;;;8.64;100.00
11001;BME280;5553;48.506;8.870;2022-10-03T18:46:14;97361.19;;;8.75;100.00
11001;BME280;5553;48.506;8.870;2022-10-03T18:48:59;97371.81;;;8.57;100.00
11001;BME280;5553;48.506;8.870;2022-10-03T18:51:32;97374.56;;;8.47;100.00
11001;BME280;5553;48.506;8.870;2022-10-03T18:54:06;97374.81;;;8.36;100.00
11001;BME280;5553;48.506;8.870;2022-10-03T18:56:45;97378.00;;;8.40;100.00
11001;BME280;5553;48.506;8.870;2022-10-03T18:59:20;97384.66;;;8.34;100.00
11001;BME280;5553;48.506;8.870;2022-10-03T19:01:53;97403.50;;;8.21;100.00
11001;BME280;5553;48.506;8.870;2022-10-03T19:04:33;97405.53;;;8.10;100.00
11001;BME280;5553;48.506;8.870;2022-10-03T19:07:12;97409.16;;;8.08;100.00
11001;BME280;5553;48.506;8.870;2022-10-03T19:10:09;97415.84;;;8.03;100.00
11001;BME280;5553;48.506;8.870;2022-10-03T19:12:45;97410.75;;;8.01;100.00
11001;BME280;5553;48.506;8.870;2022-10-03T19:15:18;97409.03;;;7.92;100.00
11001;BME280;5553;48.506;8.870;2022-10-03T19:17:56;97419.13;;;7.61;100.00
11001;BME280;5553;48.506;8.870;2022-10-03T19:20:32;97424.97;;;7.55;100.00
11001;BME280;5553;48.506;8.870;2022-10-03T19:23:07;97424.16;;;7.54;100.00
11001;BME280;5553;48.506;8.870;2022-10-03T19:25:41;97424.75;;;7.48;100.00
11001;BME280;5553;48.506;8.870;2022-10-03T19:28:18;97428.28;;;7.57;100.00
11001;BME280;5553;48.506;8.870;2022-10-03T19:30:56;97438.28;;;7.53;100.00
11001;BME280;5553;48.506;8.870;2022-10-03T19:33:26;97436.63;;;7.52;100.00
11001;BME280;5553;48.506;8.870;2022-10-03T19:35:59;97438.16;;;7.45;100.00
11001;BME280;5553;48.506;8.870;2022-10-03T19:38:31;97432.63;;;7.30;100.00
11001;BME280;5553;48.506;8.870;2022-10-03T19:41:03;97438.78;;;7.39;100.00
11001;BME280;5553;48.506;8.870;2022-10-03T19:43:40;97444.34;;;7.36;100.00
11001;BME280;5553;48.506;8.870;2022-10-03T19:46:19;97440.72;;;7.37;100.00
11001;BME280;5553;48.506;8.870;2022-10-03T19:49:02;97441.94;;;7.25;100.00
11001;BME280;5553;48.506;8.870;2022-10-03T19:51:34;97447.94;;;7.35;100.00
11001;BME280;5553;48.506;8.870;2022-10-03T19:54:10;97441.47;;;7.29;100.00
11001;BME280;5553;48.506;8.870;2022-10-03T19:56:39;97436.22;;;7.29;100.00
11001;BME280;5553;48.506;8.870;2022-10-03T19:59:15;97439.16;;;7.26;100.00
11001;BME280;5553;48.506;8.870;2022-10-03T20:01:46;97439.59;;;7.22;100.00
11001;BME280;5553;48.506;8.870;2022-10-03T20:04:31;97447.47;;;7.22;100.00
11001;BME280;5553;48.506;8.870;2022-10-03T20:07:03;97444.59;;;7.15;100.00
11001;BME280;5553;48.506;8.870;2022-10-03T20:09:35;97451.34;;;7.18;100.00
11001;BME280;5553;48.506;8.870;2022-10-03T20:12:07;97456.19;;;6.95;100.00
11001;BME280;5553;48.506;8.870;2022-10-03T20:14:40;97461.38;;;7.04;100.00
11001;BME280;5553;48.506;8.870;2022-10-03T20:17:11;97456.94;;;7.05;100.00
11001;BME280;5553;48.506;8.870;2022-10-03T20:19:48;97461.25;;;6.96;100.00
11001;BME280;5553;48.506;8.870;2022-10-03T20:22:20;97453.38;;;6.69;100.00
11001;BME280;5553;48.506;8.870;2022-10-03T20:24:50;97456.44;;;6.64;100.00
11001;BME280;5553;48.506;8.870;2022-10-03T20:27:30;97474.41;;;6.49;100.00
11001;BME280;5553;48.506;8.870;2022-10-03T20:30:31;97463.81;;;6.41;100.00
11001;BME280;5553;48.506;8.870;2022-10-03T20:33:05;97471.22;;;6.55;100.00
11001;BME280;5553;48.506;8.870;2022-10-03T20:35:49;97479.59;;;6.69;100.00
11001;BME280;5553;48.506;8.870;2022-10-03T20:38:27;97475.34;;;6.68;100.00
11001;BME280;5553;48.506;8.870;2022-10-03T20:41:02;97469.13;;;6.59;100.00
11001;BME280;5553;48.506;8.870;2022-10-03T20:43:38;97465.06;;;6.47;100.00
11001;BME280;5553;48.506;8.870;2022-10-03T20:46:20;97458.56;;;6.41;100.00
11001;BME280;5553;48.506;8.870;2022-10-03T20:49:05;97464.38;;;6.35;100.00
11001;BME280;5553;48.506;8.870;2022-10-03T20:51:38;97472.53;;;6.32;100.00
11001;BME280;5553;48.506;8.870;2022-10-03T20:54:12;97470.06;;;6.21;100.00
11001;BME280;5553;48.506;8.870;2022-10-03T20:56:49;97479.19;;;6.16;100.00
11001;BME280;5553;48.506;8.870;2022-10-03T20:59:24;97484.97;;;6.10;100.00
11001;BME280;5553;48.506;8.870;2022-10-03T21:02:05;97496.56;;;6.17;100.00
11001;BME280;5553;48.506;8.870;2022-10-03T21:04:39;97493.66;;;6.21;100.00
11001;BME280;5553;48.506;8.870;2022-10-03T21:07:22;97496.97;;;6.23;100.00
11001;BME280;5553;48.506;8.870;2022-10-03T21:09:59;97495.47;;;6.20;100.00
11001;BME280;5553;48.506;8.870;2022-10-03T21:12:33;97495.72;;;6.17;100.00
11001;BME280;5553;48.506;8.870;2022-10-03T21:15:09;97501.53;;;6.21;100.00
11001;BME280;5553;48.506;8.870;2022-10-03T21:17:41;97487.44;;;6.12;100.00
11001;BME280;5553;48.506;8.870;2022-10-03T21:20:16;97494.09;;;6.06;100.00
11001;BME280;5553;48.506;8.870;2022-10-03T21:22:50;97482.38;;;6.01;100.00
11001;BME280;5553;48.506;8.870;2022-10-03T21:25:22;97488.16;;;6.04;100.00
11001;BME280;5553;48.506;8.870;2022-10-03T21:27:53;97491.03;;;6.01;100.00
11001;BME280;5553;48.506;8.870;2022-10-03T21:30:40;97481.00;;;5.97;100.00
11001;BME280;5553;48.506;8.870;2022-10-03T21:33:17;97478.88;;;5.81;100.00
11001;BME280;5553;48.506;8.870;2022-10-03T21:35:48;97476.28;;;5.61;100.00
11001;BME280;5553;48.506;8.870;2022-10-03T21:38:21;97485.50;;;5.65;100.00
11001;BME280;5553;48.506;8.870;2022-10-03T21:41:16;97483.72;;;5.76;100.00
11001;BME280;5553;48.506;8.870;2022-10-03T21:43:52;97478.06;;;5.70;100.00